sensor_id;sensor_type;location;lat;lon;timestamp;P1;durP1;ratioP1;P2;durP2;ratioP2
70213;SDS011;60138;55.808;37.078;2022-08-27T00:01:08;31.08;;;15.95;;
70213;SDS011;60138;55.808;37.078;2022-08-27T00:03:36;27.67;;;16.80;;
70213;SDS011;60138;55.808;37.078;2022-08-27T00:06:02;33.83;;;16.77;;
70213;SDS011;60138;55.808;37.078;2022-08-27T00:08:28;32.85;;;18.05;;
70213;SDS011;60138;55.808;37.078;2022-08-27T00:10:53;32.00;;;17.73;;
70213;SDS011;60138;55.808;37.078;2022-08-27T00:13:19;40.33;;;17.73;;
70213;SDS011;60138;55.808;37.078;2022-08-27T00:15:45;27.27;;;16.40;;
70213;SDS011;60138;55.808;37.078;2022-08-27T00:18:11;29.70;;;17.27;;
70213;SDS011;60138;55.808;37.078;2022-08-27T00:20:36;28.00;;;15.93;;
70213;SDS011;60138;55.808;37.078;2022-08-27T00:23:02;31.27;;;17.47;;
70213;SDS011;60138;55.808;37.078;2022-08-27T00:25:28;27.55;;;16.27;;
70213;SDS011;60138;55.808;37.078;2022-08-27T00:27:54;25.95;;;16.17;;
70213;SDS011;60138;55.808;37.078;2022-08-27T00:30:20;32.50;;;18.27;;
70213;SDS011;60138;55.808;37.078;2022-08-27T00:32:47;29.08;;;17.63;;
70213;SDS011;60138;55.808;37.078;2022-08-27T00:35:13;28.05;;;16.10;;
70213;SDS011;60138;55.808;37.078;2022-08-27T00:37:40;29.85;;;16.35;;
70213;SDS011;60138;55.808;37.078;2022-08-27T00:40:08;28.60;;;17.20;;
70213;SDS011;60138;55.808;37.078;2022-08-27T00:42:37;24.83;;;16.08;;
70213;SDS011;60138;55.808;37.078;2022-08-27T00:45:04;28.02;;;16.73;;
70213;SDS011;60138;55.808;37.078;2022-08-27T00:47:31;25.05;;;17.17;;
70213;SDS011;60138;55.808;37.078;2022-08-27T00:50:03;27.98;;;16.73;;
70213;SDS011;60138;55.808;37.078;2022-08-27T00:52:49;27.97;;;17.97;;
70213;SDS011;60138;55.808;37.078;2022-08-27T00:55:20;24.67;;;16.35;;
70213;SDS011;60138;55.808;37.078;2022-08-27T00:57:51;27.45;;;16.70;;
70213;SDS011;60138;55.808;37.078;2022-08-27T01:00:32;25.77;;;16.73;;
70213;SDS011;60138;55.808;37.078;2022-08-27T01:02:58;28.88;;;17.55;;
70213;SDS011;60138;55.808;37.078;2022-08-27T01:05:24;26.93;;;16.07;;
70213;SDS011;60138;55.808;37.078;2022-08-27T01:07:53;27.48;;;16.17;;
70213;SDS011;60138;55.808;37.078;2022-08-27T01:10:24;28.77;;;16.60;;
70213;SDS011;60138;55.808;37.078;2022-08-27T01:12:51;31.23;;;16.58;;
70213;SDS011;60138;55.808;37.078;2022-08-27T01:15:17;25.80;;;15.10;;
70213;SDS011;60138;55.808;37.078;2022-08-27T01:17:44;30.25;;;15.82;;
70213;SDS011;60138;55.808;37.078;2022-08-27T01:20:14;26.25;;;16.65;;
70213;SDS011;60138;55.808;37.078;2022-08-27T01:25:16;25.83;;;16.60;;
70213;SDS011;60138;55.808;37.078;2022-08-27T01:27:44;28.53;;;15.90;;
70213;SDS011;60138;55.808;37.078;2022-08-27T01:30:13;27.90;;;15.20;;
70213;SDS011;60138;55.808;37.078;2022-08-27T01:32:42;28.10;;;15.85;;
70213;SDS011;60138;55.808;37.078;2022-08-27T01:35:10;28.27;;;15.95;;
70213;SDS011;60138;55.808;37.078;2022-08-27T01:37:37;34.30;;;16.88;;
70213;SDS011;60138;55.808;37.078;2022-08-27T01:40:04;33.17;;;17.20;;
70213;SDS011;60138;55.808;37.078;2022-08-27T01:42:31;34.35;;;16.23;;
70213;SDS011;60138;55.808;37.078;2022-08-27T01:45:00;31.42;;;16.02;;
70213;SDS011;60138;55.808;37.078;2022-08-27T01:47:31;26.60;;;15.38;;
70213;SDS011;60138;55.808;37.078;2022-08-27T01:49:58;25.45;;;17.48;;
70213;SDS011;60138;55.808;37.078;2022-08-27T01:52:25;26.83;;;14.97;;
70213;SDS011;60138;55.808;37.078;2022-08-27T01:54:53;28.25;;;16.42;;
70213;SDS011;60138;55.808;37.078;2022-08-27T01:57:19;26.90;;;16.13;;
70213;SDS011;60138;55.808;37.078;2022-08-27T01:59:46;30.17;;;17.40;;
70213;SDS011;60138;55.808;37.078;2022-08-27T02:02:12;40.40;;;16.80;;
70213;SDS011;60138;55.808;37.078;2022-08-27T02:04:39;27.70;;;16.75;;
70213;SDS011;60138;55.808;37.078;2022-08-27T02:07:05;26.63;;;17.38;;
70213;SDS011;60138;55.808;37.078;2022-08-27T02:09:31;28.58;;;17.10;;
70213;SDS011;60138;55.808;37.078;2022-08-27T02:11:57;25.20;;;15.68;;
70213;SDS011;60138;55.808;37.078;2022-08-27T02:14:24;30.83;;;16.52;;
70213;SDS011;60138;55.808;37.078;2022-08-27T02:16:50;27.52;;;16.23;;
70213;SDS011;60138;55.808;37.078;2022-08-27T02:19:17;29.33;;;15.40;;
70213;SDS011;60138;55.808;37.078;2022-08-27T02:21:43;28.38;;;15.82;;
70213;SDS011;60138;55.808;37.078;2022-08-27T02:24:09;34.55;;;16.67;;
70213;SDS011;60138;55.808;37.078;2022-08-27T02:26:35;25.65;;;15.50;;
70213;SDS011;60138;55.808;37.078;2022-08-27T02:29:01;36.78;;;18.48;;
70213;SDS011;60138;55.808;37.078;2022-08-27T02:31:27;26.90;;;15.80;;
70213;SDS011;60138;55.808;37.078;2022-08-27T02:33:53;31.60;;;17.23;;
70213;SDS011;60138;55.808;37.078;2022-08-27T02:36:19;29.83;;;15.13;;
70213;SDS011;60138;55.808;37.078;2022-08-27T02:38:44;30.85;;;16.23;;
70213;SDS011;60138;55.808;37.078;2022-08-27T02:41:10;25.77;;;17.10;;
70213;SDS011;60138;55.808;37.078;2022-08-27T02:43:36;28.85;;;17.13;;
70213;SDS011;60138;55.808;37.078;2022-08-27T02:46:02;28.33;;;15.80;;
70213;SDS011;60138;55.808;37.078;2022-08-27T02:48:28;24.40;;;17.13;;
70213;SDS011;60138;55.808;37.078;2022-08-27T02:50:54;26.42;;;16.40;;
70213;SDS011;60138;55.808;37.078;2022-08-27T02:53:20;30.70;;;16.70;;
70213;SDS011;60138;55.808;37.078;2022-08-27T02:55:46;30.55;;;17.55;;
70213;SDS011;60138;55.808;37.078;2022-08-27T02:58:12;31.17;;;17.58;;
70213;SDS011;60138;55.808;37.078;2022-08-27T03:00:38;27.20;;;16.90;;
70213;SDS011;60138;55.808;37.078;2022-08-27T03:03:03;29.58;;;15.80;;
70213;SDS011;60138;55.808;37.078;2022-08-27T03:05:29;29.57;;;16.20;;
70213;SDS011;60138;55.808;37.078;2022-08-27T03:07:55;24.85;;;16.60;;
70213;SDS011;60138;55.808;37.078;2022-08-27T03:10:21;28.47;;;15.60;;
70213;SDS011;60138;55.808;37.078;2022-08-27T03:12:47;32.10;;;15.85;;
70213;SDS011;60138;55.808;37.078;2022-08-27T03:15:13;25.60;;;16.42;;
70213;SDS011;60138;55.808;37.078;2022-08-27T03:17:41;26.48;;;16.55;;
70213;SDS011;60138;55.808;37.078;2022-08-27T03:20:07;22.90;;;16.47;;
70213;SDS011;60138;55.808;37.078;2022-08-27T03:22:33;26.92;;;16.83;;
70213;SDS011;60138;55.808;37.078;2022-08-27T03:25:00;24.95;;;19.02;;
70213;SDS011;60138;55.808;37.078;2022-08-27T03:27:29;25.77;;;17.00;;
70213;SDS011;60138;55.808;37.078;2022-08-27T03:29:55;28.50;;;17.03;;
70213;SDS011;60138;55.808;37.078;2022-08-27T03:32:21;26.80;;;16.10;;
70213;SDS011;60138;55.808;37.078;2022-08-27T03:34:47;27.30;;;16.92;;
70213;SDS011;60138;55.808;37.078;2022-08-27T03:37:13;27.00;;;17.40;;
70213;SDS011;60138;55.808;37.078;2022-08-27T03:39:38;26.88;;;17.85;;
70213;SDS011;60138;55.808;37.078;2022-08-27T03:42:04;26.17;;;17.33;;
70213;SDS011;60138;55.808;37.078;2022-08-27T03:44:30;27.00;;;18.33;;
70213;SDS011;60138;55.808;37.078;2022-08-27T03:46:56;28.63;;;17.53;;
70213;SDS011;60138;55.808;37.078;2022-08-27T03:49:22;27.25;;;17.58;;
70213;SDS011;60138;55.808;37.078;2022-08-27T03:51:48;26.10;;;16.75;;
70213;SDS011;60138;55.808;37.078;2022-08-27T03:54:15;36.47;;;17.90;;
70213;SDS011;60138;55.808;37.078;2022-08-27T03:56:41;26.95;;;16.75;;
70213;SDS011;60138;55.808;37.078;2022-08-27T03:59:07;36.20;;;17.60;;
70213;SDS011;60138;55.808;37.078;2022-08-27T04:01:33;28.63;;;17.73;;
70213;SDS011;60138;55.808;37.078;2022-08-27T04:03:58;33.63;;;17.92;;
70213;SDS011;60138;55.808;37.078;2022-08-27T04:06:24;27.27;;;17.23;;
70213;SDS011;60138;55.808;37.078;2022-08-27T04:08:50;44.47;;;26.15;;
70213;SDS011;60138;55.808;37.078;2022-08-27T04:11:16;39.53;;;22.73;;
70213;SDS011;60138;55.808;37.078;2022-08-27T04:13:41;31.52;;;19.38;;
70213;SDS011;60138;55.808;37.078;2022-08-27T04:16:07;32.58;;;19.17;;
70213;SDS011;60138;55.808;37.078;2022-08-27T04:18:33;34.05;;;19.33;;
70213;SDS011;60138;55.808;37.078;2022-08-27T04:21:05;31.17;;;17.30;;
70213;SDS011;60138;55.808;37.078;2022-08-27T04:23:35;29.10;;;19.38;;
70213;SDS011;60138;55.808;37.078;2022-08-27T04:26:05;32.22;;;17.80;;
70213;SDS011;60138;55.808;37.078;2022-08-27T04:28:32;30.77;;;18.38;;
70213;SDS011;60138;55.808;37.078;2022-08-27T04:30:58;36.45;;;18.65;;
70213;SDS011;60138;55.808;37.078;2022-08-27T04:33:26;36.35;;;18.92;;
70213;SDS011;60138;55.808;37.078;2022-08-27T04:35:58;24.95;;;17.77;;
70213;SDS011;60138;55.808;37.078;2022-08-27T04:38:26;34.90;;;18.85;;
70213;SDS011;60138;55.808;37.078;2022-08-27T04:40:52;35.70;;;19.05;;
70213;SDS011;60138;55.808;37.078;2022-08-27T04:43:17;29.73;;;18.33;;
70213;SDS011;60138;55.808;37.078;2022-08-27T04:45:44;35.17;;;18.93;;
70213;SDS011;60138;55.808;37.078;2022-08-27T04:48:11;37.95;;;19.23;;
70213;SDS011;60138;55.808;37.078;2022-08-27T04:50:42;31.88;;;19.60;;
70213;SDS011;60138;55.808;37.078;2022-08-27T04:53:10;32.70;;;19.20;;
70213;SDS011;60138;55.808;37.078;2022-08-27T04:55:40;37.43;;;18.73;;
70213;SDS011;60138;55.808;37.078;2022-08-27T04:58:07;36.05;;;19.52;;
70213;SDS011;60138;55.808;37.078;2022-08-27T05:00:33;37.65;;;18.95;;
70213;SDS011;60138;55.808;37.078;2022-08-27T05:03:04;39.08;;;18.52;;
70213;SDS011;60138;55.808;37.078;2022-08-27T05:05:30;33.93;;;18.97;;
70213;SDS011;60138;55.808;37.078;2022-08-27T05:07:56;40.75;;;19.92;;
70213;SDS011;60138;55.808;37.078;2022-08-27T05:10:22;48.73;;;21.03;;
70213;SDS011;60138;55.808;37.078;2022-08-27T05:12:47;41.22;;;18.23;;
70213;SDS011;60138;55.808;37.078;2022-08-27T05:15:13;35.70;;;18.63;;
70213;SDS011;60138;55.808;37.078;2022-08-27T05:17:39;34.90;;;18.25;;
70213;SDS011;60138;55.808;37.078;2022-08-27T05:20:05;30.80;;;18.83;;
70213;SDS011;60138;55.808;37.078;2022-08-27T05:22:31;33.83;;;18.05;;
70213;SDS011;60138;55.808;37.078;2022-08-27T05:24:57;33.17;;;17.07;;
70213;SDS011;60138;55.808;37.078;2022-08-27T05:27:23;36.10;;;17.55;;
70213;SDS011;60138;55.808;37.078;2022-08-27T05:29:49;33.38;;;17.75;;
70213;SDS011;60138;55.808;37.078;2022-08-27T05:32:15;29.37;;;17.33;;
70213;SDS011;60138;55.808;37.078;2022-08-27T05:34:41;29.30;;;17.70;;
70213;SDS011;60138;55.808;37.078;2022-08-27T05:37:07;28.77;;;14.57;;
70213;SDS011;60138;55.808;37.078;2022-08-27T05:39:32;27.65;;;14.48;;
70213;SDS011;60138;55.808;37.078;2022-08-27T05:41:58;32.47;;;16.27;;
70213;SDS011;60138;55.808;37.078;2022-08-27T05:44:24;24.25;;;14.15;;
70213;SDS011;60138;55.808;37.078;2022-08-27T05:46:50;30.63;;;16.40;;
70213;SDS011;60138;55.808;37.078;2022-08-27T05:49:15;23.42;;;13.98;;
70213;SDS011;60138;55.808;37.078;2022-08-27T05:51:41;29.67;;;13.65;;
70213;SDS011;60138;55.808;37.078;2022-08-27T05:54:08;23.60;;;14.33;;
70213;SDS011;60138;55.808;37.078;2022-08-27T05:56:35;24.92;;;13.88;;
70213;SDS011;60138;55.808;37.078;2022-08-27T05:59:02;24.70;;;13.25;;
70213;SDS011;60138;55.808;37.078;2022-08-27T06:01:29;21.13;;;12.40;;
70213;SDS011;60138;55.808;37.078;2022-08-27T06:03:56;21.67;;;12.43;;
70213;SDS011;60138;55.808;37.078;2022-08-27T06:06:22;22.92;;;12.20;;
70213;SDS011;60138;55.808;37.078;2022-08-27T06:08:49;19.67;;;12.82;;
70213;SDS011;60138;55.808;37.078;2022-08-27T06:11:16;26.10;;;11.97;;
70213;SDS011;60138;55.808;37.078;2022-08-27T06:13:42;20.67;;;11.25;;
70213;SDS011;60138;55.808;37.078;2022-08-27T06:16:08;19.48;;;11.40;;
70213;SDS011;60138;55.808;37.078;2022-08-27T06:18:36;20.65;;;10.73;;
70213;SDS011;60138;55.808;37.078;2022-08-27T06:21:02;18.10;;;10.37;;
70213;SDS011;60138;55.808;37.078;2022-08-27T06:23:29;28.77;;;11.75;;
70213;SDS011;60138;55.808;37.078;2022-08-27T06:25:56;24.00;;;11.20;;
70213;SDS011;60138;55.808;37.078;2022-08-27T06:28:32;20.25;;;11.10;;
70213;SDS011;60138;55.808;37.078;2022-08-27T06:31:06;20.13;;;9.77;;
70213;SDS011;60138;55.808;37.078;2022-08-27T06:33:34;20.92;;;10.32;;
70213;SDS011;60138;55.808;37.078;2022-08-27T06:36:01;20.25;;;10.25;;
70213;SDS011;60138;55.808;37.078;2022-08-27T06:38:28;21.50;;;10.77;;
70213;SDS011;60138;55.808;37.078;2022-08-27T06:40:54;17.23;;;10.33;;
70213;SDS011;60138;55.808;37.078;2022-08-27T06:43:21;19.95;;;9.30;;
70213;SDS011;60138;55.808;37.078;2022-08-27T06:45:47;17.25;;;9.02;;
70213;SDS011;60138;55.808;37.078;2022-08-27T06:48:13;20.20;;;9.43;;
70213;SDS011;60138;55.808;37.078;2022-08-27T06:50:39;13.70;;;8.07;;
70213;SDS011;60138;55.808;37.078;2022-08-27T06:53:07;23.98;;;9.40;;
70213;SDS011;60138;55.808;37.078;2022-08-27T06:55:46;14.73;;;8.13;;
70213;SDS011;60138;55.808;37.078;2022-08-27T06:58:13;17.08;;;8.18;;
70213;SDS011;60138;55.808;37.078;2022-08-27T07:00:41;19.83;;;8.83;;
70213;SDS011;60138;55.808;37.078;2022-08-27T07:03:07;17.25;;;8.73;;
70213;SDS011;60138;55.808;37.078;2022-08-27T07:05:33;19.23;;;9.10;;
70213;SDS011;60138;55.808;37.078;2022-08-27T07:08:01;15.05;;;9.10;;
70213;SDS011;60138;55.808;37.078;2022-08-27T07:10:27;17.27;;;8.02;;
70213;SDS011;60138;55.808;37.078;2022-08-27T07:12:53;18.00;;;8.17;;
70213;SDS011;60138;55.808;37.078;2022-08-27T07:15:19;17.33;;;9.07;;
70213;SDS011;60138;55.808;37.078;2022-08-27T07:17:46;16.70;;;8.05;;
70213;SDS011;60138;55.808;37.078;2022-08-27T07:20:12;15.33;;;9.03;;
70213;SDS011;60138;55.808;37.078;2022-08-27T07:22:40;18.83;;;8.25;;
70213;SDS011;60138;55.808;37.078;2022-08-27T07:25:08;18.55;;;9.32;;
70213;SDS011;60138;55.808;37.078;2022-08-27T07:27:36;16.48;;;8.10;;
70213;SDS011;60138;55.808;37.078;2022-08-27T07:30:03;15.18;;;7.93;;
70213;SDS011;60138;55.808;37.078;2022-08-27T07:32:30;18.83;;;8.37;;
70213;SDS011;60138;55.808;37.078;2022-08-27T07:34:56;17.67;;;9.13;;
70213;SDS011;60138;55.808;37.078;2022-08-27T07:37:22;17.23;;;8.57;;
70213;SDS011;60138;55.808;37.078;2022-08-27T07:39:48;13.87;;;7.53;;
70213;SDS011;60138;55.808;37.078;2022-08-27T07:42:13;13.90;;;8.00;;
70213;SDS011;60138;55.808;37.078;2022-08-27T07:44:39;16.13;;;8.30;;
70213;SDS011;60138;55.808;37.078;2022-08-27T07:47:05;14.97;;;8.43;;
70213;SDS011;60138;55.808;37.078;2022-08-27T07:49:31;15.18;;;8.02;;
70213;SDS011;60138;55.808;37.078;2022-08-27T07:51:57;18.95;;;7.28;;
70213;SDS011;60138;55.808;37.078;2022-08-27T07:54:23;14.70;;;7.40;;
70213;SDS011;60138;55.808;37.078;2022-08-27T07:56:49;15.10;;;7.63;;
70213;SDS011;60138;55.808;37.078;2022-08-27T07:59:15;16.77;;;7.33;;
70213;SDS011;60138;55.808;37.078;2022-08-27T08:01:41;13.98;;;6.72;;
70213;SDS011;60138;55.808;37.078;2022-08-27T08:04:07;17.98;;;7.05;;
70213;SDS011;60138;55.808;37.078;2022-08-27T08:06:35;12.70;;;7.00;;
70213;SDS011;60138;55.808;37.078;2022-08-27T08:09:02;17.42;;;7.53;;
70213;SDS011;60138;55.808;37.078;2022-08-27T08:11:29;14.93;;;7.93;;
70213;SDS011;60138;55.808;37.078;2022-08-27T08:13:55;15.35;;;6.78;;
70213;SDS011;60138;55.808;37.078;2022-08-27T08:16:22;16.00;;;6.77;;
70213;SDS011;60138;55.808;37.078;2022-08-27T08:18:49;12.60;;;7.15;;
70213;SDS011;60138;55.808;37.078;2022-08-27T08:21:14;22.33;;;7.55;;
70213;SDS011;60138;55.808;37.078;2022-08-27T08:23:40;19.60;;;7.30;;
70213;SDS011;60138;55.808;37.078;2022-08-27T08:26:07;15.55;;;7.05;;
70213;SDS011;60138;55.808;37.078;2022-08-27T08:28:34;13.98;;;7.07;;
70213;SDS011;60138;55.808;37.078;2022-08-27T08:31:00;11.93;;;6.93;;
70213;SDS011;60138;55.808;37.078;2022-08-27T08:33:27;22.73;;;6.63;;
70213;SDS011;60138;55.808;37.078;2022-08-27T08:35:53;13.48;;;6.55;;
70213;SDS011;60138;55.808;37.078;2022-08-27T08:38:19;12.05;;;6.80;;
70213;SDS011;60138;55.808;37.078;2022-08-27T08:40:46;16.10;;;7.50;;
70213;SDS011;60138;55.808;37.078;2022-08-27T08:43:35;9.97;;;5.83;;
70213;SDS011;60138;55.808;37.078;2022-08-27T08:48:50;16.42;;;5.80;;
70213;SDS011;60138;55.808;37.078;2022-08-27T08:51:23;14.80;;;6.47;;
70213;SDS011;60138;55.808;37.078;2022-08-27T08:53:56;12.60;;;6.38;;
70213;SDS011;60138;55.808;37.078;2022-08-27T08:59:36;10.32;;;6.35;;
70213;SDS011;60138;55.808;37.078;2022-08-27T09:02:07;12.50;;;6.57;;
70213;SDS011;60138;55.808;37.078;2022-08-27T09:04:35;11.95;;;6.53;;
70213;SDS011;60138;55.808;37.078;2022-08-27T09:07:07;11.27;;;7.53;;
70213;SDS011;60138;55.808;37.078;2022-08-27T09:12:19;13.23;;;6.68;;
70213;SDS011;60138;55.808;37.078;2022-08-27T09:14:49;13.85;;;7.38;;
70213;SDS011;60138;55.808;37.078;2022-08-27T09:17:41;11.98;;;7.15;;
70213;SDS011;60138;55.808;37.078;2022-08-27T09:20:09;9.70;;;6.90;;
70213;SDS011;60138;55.808;37.078;2022-08-27T09:25:19;15.75;;;7.18;;
70213;SDS011;60138;55.808;37.078;2022-08-27T09:27:50;12.95;;;8.10;;
70213;SDS011;60138;55.808;37.078;2022-08-27T09:30:23;13.48;;;7.28;;
70213;SDS011;60138;55.808;37.078;2022-08-27T09:32:53;11.38;;;7.57;;
70213;SDS011;60138;55.808;37.078;2022-08-27T09:35:21;10.87;;;6.87;;
70213;SDS011;60138;55.808;37.078;2022-08-27T09:37:50;11.50;;;7.32;;
70213;SDS011;60138;55.808;37.078;2022-08-27T09:45:32;13.23;;;7.45;;
70213;SDS011;60138;55.808;37.078;2022-08-27T09:50:45;17.33;;;8.27;;
70213;SDS011;60138;55.808;37.078;2022-08-27T09:53:17;17.60;;;7.78;;
70213;SDS011;60138;55.808;37.078;2022-08-27T09:55:54;16.42;;;9.23;;
70213;SDS011;60138;55.808;37.078;2022-08-27T09:58:30;16.88;;;8.50;;
70213;SDS011;60138;55.808;37.078;2022-08-27T10:01:04;18.23;;;8.43;;
70213;SDS011;60138;55.808;37.078;2022-08-27T10:03:32;15.88;;;7.90;;
70213;SDS011;60138;55.808;37.078;2022-08-27T10:05:58;13.75;;;8.48;;
70213;SDS011;60138;55.808;37.078;2022-08-27T10:10:57;12.03;;;8.73;;
70213;SDS011;60138;55.808;37.078;2022-08-27T10:24:28;24.17;;;9.27;;
70213;SDS011;60138;55.808;37.078;2022-08-27T10:29:43;15.48;;;8.38;;
70213;SDS011;60138;55.808;37.078;2022-08-27T10:32:43;11.95;;;7.55;;
70213;SDS011;60138;55.808;37.078;2022-08-27T10:35:23;13.30;;;9.13;;
70213;SDS011;60138;55.808;37.078;2022-08-27T10:38:02;14.55;;;8.73;;
70213;SDS011;60138;55.808;37.078;2022-08-27T10:49:18;14.97;;;8.23;;
70213;SDS011;60138;55.808;37.078;2022-08-27T11:00:16;16.35;;;9.40;;
70213;SDS011;60138;55.808;37.078;2022-08-27T11:06:22;14.07;;;8.48;;
70213;SDS011;60138;55.808;37.078;2022-08-27T11:08:56;19.45;;;10.50;;
70213;SDS011;60138;55.808;37.078;2022-08-27T11:11:30;12.05;;;8.80;;
70213;SDS011;60138;55.808;37.078;2022-08-27T11:14:01;13.30;;;9.82;;
70213;SDS011;60138;55.808;37.078;2022-08-27T11:16:36;14.20;;;9.03;;
70213;SDS011;60138;55.808;37.078;2022-08-27T11:22:16;14.48;;;8.90;;
70213;SDS011;60138;55.808;37.078;2022-08-27T11:27:28;11.77;;;9.70;;
70213;SDS011;60138;55.808;37.078;2022-08-27T11:29:58;16.98;;;9.70;;
70213;SDS011;60138;55.808;37.078;2022-08-27T11:34:56;16.13;;;9.27;;
70213;SDS011;60138;55.808;37.078;2022-08-27T11:43:42;14.27;;;8.75;;
70213;SDS011;60138;55.808;37.078;2022-08-27T11:46:09;15.65;;;9.40;;
70213;SDS011;60138;55.808;37.078;2022-08-27T11:48:37;12.83;;;8.20;;
70213;SDS011;60138;55.808;37.078;2022-08-27T11:53:54;20.60;;;9.23;;
70213;SDS011;60138;55.808;37.078;2022-08-27T11:58:54;32.53;;;9.70;;
70213;SDS011;60138;55.808;37.078;2022-08-27T12:01:27;13.97;;;8.97;;
70213;SDS011;60138;55.808;37.078;2022-08-27T12:03:59;15.95;;;8.68;;
70213;SDS011;60138;55.808;37.078;2022-08-27T12:06:38;19.60;;;8.88;;
70213;SDS011;60138;55.808;37.078;2022-08-27T12:09:12;15.20;;;9.30;;
70213;SDS011;60138;55.808;37.078;2022-08-27T12:25:11;14.20;;;8.57;;
70213;SDS011;60138;55.808;37.078;2022-08-27T12:27:53;15.75;;;9.50;;
70213;SDS011;60138;55.808;37.078;2022-08-27T12:30:36;19.33;;;9.73;;
70213;SDS011;60138;55.808;37.078;2022-08-27T12:33:12;15.90;;;9.63;;
70213;SDS011;60138;55.808;37.078;2022-08-27T12:35:49;14.80;;;10.30;;
70213;SDS011;60138;55.808;37.078;2022-08-27T12:38:18;19.13;;;10.35;;
70213;SDS011;60138;55.808;37.078;2022-08-27T12:40:58;17.33;;;9.90;;
70213;SDS011;60138;55.808;37.078;2022-08-27T12:43:28;14.35;;;10.25;;
70213;SDS011;60138;55.808;37.078;2022-08-27T12:48:22;17.93;;;10.73;;
70213;SDS011;60138;55.808;37.078;2022-08-27T12:50:55;15.05;;;10.70;;
70213;SDS011;60138;55.808;37.078;2022-08-27T12:58:48;14.40;;;10.93;;
70213;SDS011;60138;55.808;37.078;2022-08-27T13:04:25;15.82;;;11.52;;
70213;SDS011;60138;55.808;37.078;2022-08-27T13:06:54;16.13;;;11.07;;
70213;SDS011;60138;55.808;37.078;2022-08-27T13:09:27;15.15;;;10.73;;
70213;SDS011;60138;55.808;37.078;2022-08-27T13:11:58;16.47;;;11.03;;
70213;SDS011;60138;55.808;37.078;2022-08-27T13:14:25;15.63;;;10.98;;
70213;SDS011;60138;55.808;37.078;2022-08-27T13:16:54;16.38;;;11.43;;
70213;SDS011;60138;55.808;37.078;2022-08-27T13:21:54;15.02;;;11.38;;
70213;SDS011;60138;55.808;37.078;2022-08-27T13:24:32;16.23;;;11.10;;
70213;SDS011;60138;55.808;37.078;2022-08-27T13:27:01;17.88;;;12.65;;
70213;SDS011;60138;55.808;37.078;2022-08-27T13:29:29;15.43;;;11.70;;
70213;SDS011;60138;55.808;37.078;2022-08-27T13:31:57;14.75;;;11.43;;
70213;SDS011;60138;55.808;37.078;2022-08-27T13:34:25;16.70;;;11.18;;
70213;SDS011;60138;55.808;37.078;2022-08-27T13:36:56;16.23;;;12.87;;
70213;SDS011;60138;55.808;37.078;2022-08-27T13:39:22;19.25;;;11.18;;
70213;SDS011;60138;55.808;37.078;2022-08-27T13:41:49;16.00;;;11.40;;
70213;SDS011;60138;55.808;37.078;2022-08-27T13:44:32;15.05;;;11.60;;
70213;SDS011;60138;55.808;37.078;2022-08-27T13:47:19;17.08;;;11.27;;
70213;SDS011;60138;55.808;37.078;2022-08-27T13:49:49;16.00;;;11.17;;
70213;SDS011;60138;55.808;37.078;2022-08-27T13:52:35;20.50;;;12.40;;
70213;SDS011;60138;55.808;37.078;2022-08-27T13:55:06;16.15;;;12.13;;
70213;SDS011;60138;55.808;37.078;2022-08-27T13:57:40;17.30;;;11.85;;
70213;SDS011;60138;55.808;37.078;2022-08-27T14:00:17;16.67;;;12.05;;
70213;SDS011;60138;55.808;37.078;2022-08-27T14:02:49;19.53;;;12.17;;
70213;SDS011;60138;55.808;37.078;2022-08-27T14:05:25;15.15;;;11.60;;
70213;SDS011;60138;55.808;37.078;2022-08-27T14:07:54;18.70;;;12.70;;
70213;SDS011;60138;55.808;37.078;2022-08-27T14:10:33;16.40;;;12.57;;
70213;SDS011;60138;55.808;37.078;2022-08-27T14:13:21;19.00;;;12.10;;
70213;SDS011;60138;55.808;37.078;2022-08-27T14:15:49;17.73;;;11.60;;
70213;SDS011;60138;55.808;37.078;2022-08-27T14:18:35;15.98;;;11.27;;
70213;SDS011;60138;55.808;37.078;2022-08-27T14:21:02;20.02;;;12.00;;
70213;SDS011;60138;55.808;37.078;2022-08-27T14:23:29;17.67;;;12.30;;
70213;SDS011;60138;55.808;37.078;2022-08-27T14:25:56;16.35;;;12.40;;
70213;SDS011;60138;55.808;37.078;2022-08-27T14:28:24;21.75;;;15.93;;
70213;SDS011;60138;55.808;37.078;2022-08-27T14:30:50;24.63;;;14.27;;
70213;SDS011;60138;55.808;37.078;2022-08-27T14:33:16;43.83;;;34.47;;
70213;SDS011;60138;55.808;37.078;2022-08-27T14:35:42;32.58;;;24.02;;
70213;SDS011;60138;55.808;37.078;2022-08-27T14:38:18;24.02;;;18.27;;
70213;SDS011;60138;55.808;37.078;2022-08-27T14:40:48;51.50;;;39.22;;
70213;SDS011;60138;55.808;37.078;2022-08-27T14:43:16;24.67;;;18.02;;
70213;SDS011;60138;55.808;37.078;2022-08-27T14:45:42;26.57;;;20.13;;
70213;SDS011;60138;55.808;37.078;2022-08-27T14:48:11;31.92;;;23.55;;
70213;SDS011;60138;55.808;37.078;2022-08-27T14:50:40;26.48;;;19.67;;
70213;SDS011;60138;55.808;37.078;2022-08-27T14:53:05;22.27;;;17.55;;
70213;SDS011;60138;55.808;37.078;2022-08-27T14:55:31;21.73;;;15.63;;
70213;SDS011;60138;55.808;37.078;2022-08-27T14:57:57;22.13;;;14.50;;
70213;SDS011;60138;55.808;37.078;2022-08-27T15:00:23;22.35;;;14.73;;
70213;SDS011;60138;55.808;37.078;2022-08-27T15:02:49;18.57;;;12.67;;
70213;SDS011;60138;55.808;37.078;2022-08-27T15:05:16;24.08;;;13.50;;
70213;SDS011;60138;55.808;37.078;2022-08-27T15:07:43;20.90;;;14.00;;
70213;SDS011;60138;55.808;37.078;2022-08-27T15:10:10;21.90;;;14.00;;
70213;SDS011;60138;55.808;37.078;2022-08-27T15:12:37;20.90;;;13.98;;
70213;SDS011;60138;55.808;37.078;2022-08-27T15:15:04;21.00;;;14.77;;
70213;SDS011;60138;55.808;37.078;2022-08-27T15:17:32;21.75;;;14.20;;
70213;SDS011;60138;55.808;37.078;2022-08-27T15:19:59;21.67;;;13.93;;
70213;SDS011;60138;55.808;37.078;2022-08-27T15:22:25;22.80;;;14.45;;
70213;SDS011;60138;55.808;37.078;2022-08-27T15:24:56;23.60;;;13.70;;
70213;SDS011;60138;55.808;37.078;2022-08-27T15:27:23;23.63;;;13.45;;
70213;SDS011;60138;55.808;37.078;2022-08-27T15:29:50;25.25;;;14.23;;
70213;SDS011;60138;55.808;37.078;2022-08-27T15:32:25;24.33;;;14.40;;
70213;SDS011;60138;55.808;37.078;2022-08-27T15:34:53;24.23;;;15.02;;
70213;SDS011;60138;55.808;37.078;2022-08-27T15:37:21;20.27;;;14.60;;
70213;SDS011;60138;55.808;37.078;2022-08-27T15:39:47;23.33;;;15.65;;
70213;SDS011;60138;55.808;37.078;2022-08-27T15:42:13;19.88;;;14.50;;
70213;SDS011;60138;55.808;37.078;2022-08-27T15:44:42;19.55;;;15.15;;
70213;SDS011;60138;55.808;37.078;2022-08-27T15:47:10;27.60;;;15.57;;
70213;SDS011;60138;55.808;37.078;2022-08-27T15:49:36;24.98;;;17.20;;
70213;SDS011;60138;55.808;37.078;2022-08-27T15:52:03;23.30;;;15.93;;
70213;SDS011;60138;55.808;37.078;2022-08-27T15:54:29;27.67;;;19.30;;
70213;SDS011;60138;55.808;37.078;2022-08-27T15:56:55;24.87;;;16.57;;
70213;SDS011;60138;55.808;37.078;2022-08-27T15:59:21;24.17;;;16.08;;
70213;SDS011;60138;55.808;37.078;2022-08-27T16:01:47;27.48;;;16.20;;
70213;SDS011;60138;55.808;37.078;2022-08-27T16:04:13;23.30;;;16.10;;
70213;SDS011;60138;55.808;37.078;2022-08-27T16:06:39;18.88;;;15.55;;